Time;durP1;ratioP1;P1;durP2;ratioP2;P2;SDS_P1;SDS_P2;PMS_P1;PMS_P2;Temp;Humidity;BMP_temperature;BMP_pressure;BME280_temperature;BME280_humidity;BME280_pressure;Samples;Min_cycle;Max_cycle;Signal;HPM_P1;HPM_P2
2021/03/30 00:02:23;;;;;;;15.02;9.73;;;;;;;8.80;73.87;102565.47;5043571;28;20124;-83
2021/03/30 00:04:49;;;;;;;15.45;10.23;;;;;;;8.75;74.57;102574.78;5022542;28;20049;-79
2021/03/30 00:07:14;;;;;;;15.95;9.70;;;;;;;8.66;76.23;102570.06;5026090;28;20049;-83
2021/03/30 00:09:39;;;;;;;14.35;10.02;;;;;;;8.60;75.95;102566.00;5019344;28;20041;-81
2021/03/30 00:12:06;;;;;;;15.70;9.70;;;;;;;8.54;76.61;102564.63;5040366;28;20153;-83
2021/03/30 00:14:31;;;;;;;12.77;9.52;;;;;;;8.53;76.67;102570.09;5025118;28;20041;-83
2021/03/30 00:16:57;;;;;;;16.60;9.93;;;;;;;8.44;77.17;102565.38;5025014;28;20037;-81
2021/03/30 00:19:22;;;;;;;16.92;9.88;;;;;;;8.33;78.18;102574.97;5025910;28;20036;-80
2021/03/30 00:21:48;;;;;;;16.73;10.20;;;;;;;8.21;78.23;102566.94;5020336;28;20418;-81
2021/03/30 00:24:13;;;;;;;14.65;9.48;;;;;;;8.07;78.71;102573.25;5040321;28;20413;-82
2021/03/30 00:26:38;;;;;;;18.85;10.60;;;;;;;7.86;79.58;102581.75;5037761;28;20068;-81
2021/03/30 00:29:05;;;;;;;16.05;10.43;;;;;;;7.73;80.87;102572.81;5020512;28;20483;-82
2021/03/30 00:31:31;;;;;;;17.38;10.43;;;;;;;7.70;81.04;102575.72;5022145;28;20038;-82
2021/03/30 00:33:57;;;;;;;14.82;9.77;;;;;;;7.76;79.74;102574.44;5018338;28;20068;-82
2021/03/30 00:36:22;;;;;;;14.68;10.57;;;;;;;7.77;81.24;102569.00;5022870;28;20065;-82
2021/03/30 00:38:47;;;;;;;13.95;9.85;;;;;;;7.74;82.07;102579.91;5034041;28;20070;-81
2021/03/30 00:41:13;;;;;;;14.88;10.45;;;;;;;7.68;81.60;102578.50;5022815;28;20049;-82
2021/03/30 00:43:38;;;;;;;15.10;10.73;;;;;;;7.59;81.12;102575.56;5016006;28;20513;-79
2021/03/30 00:46:16;;;;;;;14.75;10.23;;;;;;;7.42;81.03;102576.66;5019219;28;20049;-84
2021/03/30 00:48:44;;;;;;;14.77;11.02;;;;;;;7.43;83.13;102576.56;5027519;28;20046;-80
2021/03/30 00:51:09;;;;;;;16.90;10.45;;;;;;;7.40;82.24;102582.13;5024423;28;20103;-82
2021/03/30 00:53:35;;;;;;;15.73;10.32;;;;;;;7.33;82.82;102580.78;5036659;28;20042;-83
2021/03/30 00:56:01;;;;;;;17.35;10.85;;;;;;;7.29;83.42;102579.28;5020839;28;20041;-80
2021/03/30 00:58:26;;;;;;;16.45;11.02;;;;;;;7.24;84.19;102584.91;5014951;28;20052;-82
2021/03/30 01:00:52;;;;;;;18.23;10.85;;;;;;;7.20;84.15;102582.56;5039920;28;20059;-85
2021/03/30 01:03:17;;;;;;;21.23;10.98;;;;;;;7.16;83.36;102591.72;5032113;28;20384;-82
2021/03/30 01:05:43;;;;;;;15.75;10.25;;;;;;;7.18;82.44;102584.47;5025215;28;20037;-85
2021/03/30 01:08:11;;;;;;;17.13;10.30;;;;;;;7.16;83.21;102591.72;5019076;28;20144;-82
2021/03/30 01:10:50;;;;;;;15.63;10.32;;;;;;;7.12;82.40;102593.72;5042328;28;20041;-82
2021/03/30 01:13:42;;;;;;;19.70;10.83;;;;;;;7.03;83.60;102588.97;5012978;28;20042;-81
2021/03/30 01:16:15;;;;;;;16.70;10.63;;;;;;;7.00;83.90;102583.84;5027453;28;20056;-83
2021/03/30 01:18:51;;;;;;;17.50;11.68;;;;;;;7.02;83.85;102579.25;5027223;28;20041;-84
2021/03/30 01:21:52;;;;;;;17.42;10.65;;;;;;;6.97;83.85;102576.88;5029194;28;20091;-79
2021/03/30 01:24:37;;;;;;;18.17;11.15;;;;;;;6.92;82.84;102580.78;4998155;28;20037;-81
2021/03/30 01:27:17;;;;;;;18.02;10.73;;;;;;;6.81;81.82;102575.25;5033638;28;20060;-80
2021/03/30 01:29:52;;;;;;;16.10;10.70;;;;;;;6.82;83.14;102574.28;5025056;28;20072;-83
2021/03/30 01:32:35;;;;;;;16.20;10.98;;;;;;;6.89;83.21;102573.81;5043612;28;20038;-81
2021/03/30 01:35:03;;;;;;;16.27;10.57;;;;;;;6.91;84.46;102576.41;5045820;28;20091;-81
2021/03/30 01:37:34;;;;;;;16.00;11.23;;;;;;;6.76;84.65;102575.53;5036974;28;20141;-84
2021/03/30 01:40:02;;;;;;;17.27;12.30;;;;;;;6.57;85.36;102567.00;5028932;28;20037;-82
2021/03/30 01:42:30;;;;;;;17.70;11.15;;;;;;;6.53;85.72;102572.50;5040628;28;20048;-82
2021/03/30 01:44:56;;;;;;;16.85;10.80;;;;;;;6.50;83.59;102575.38;5042466;28;20140;-79
2021/03/30 01:47:23;;;;;;;17.10;11.57;;;;;;;6.55;85.90;102570.59;5027546;28;20069;-82
2021/03/30 01:49:50;;;;;;;17.50;11.32;;;;;;;6.52;86.91;102569.94;5045688;28;20069;-82
2021/03/30 01:52:18;;;;;;;15.43;11.13;;;;;;;6.47;86.47;102574.69;5026300;28;20072;-80
2021/03/30 01:54:47;;;;;;;18.40;11.73;;;;;;;6.34;85.94;102571.91;5027867;28;20055;-84
2021/03/30 01:57:13;;;;;;;16.10;10.77;;;;;;;6.20;87.25;102570.09;5031118;28;20371;-81
2021/03/30 01:59:40;;;;;;;17.27;10.95;;;;;;;6.23;87.57;102566.38;5030262;28;20037;-79
2021/03/30 02:02:07;;;;;;;15.45;10.10;;;;;;;6.20;86.47;102567.41;5029595;28;20045;-81
2021/03/30 02:04:33;;;;;;;17.95;10.70;;;;;;;6.22;88.13;102572.66;5032498;28;20030;-81
2021/03/30 02:06:59;;;;;;;18.45;11.80;;;;;;;6.18;87.16;102563.13;5030464;28;20148;-82
2021/03/30 02:09:32;;;;;;;16.55;10.65;;;;;;;6.16;86.38;102559.69;5011781;28;20046;-79
2021/03/30 02:14:23;;;;;;;19.35;10.85;;;;;;;6.18;87.44;102555.97;5044904;28;20132;-79
2021/03/30 02:17:06;;;;;;;15.60;10.60;;;;;;;6.26;86.82;102559.03;5039989;28;20041;-80
2021/03/30 02:19:52;;;;;;;15.98;11.05;;;;;;;6.24;86.86;102566.28;5039316;28;20042;-80
2021/03/30 02:22:35;;;;;;;18.95;11.75;;;;;;;6.07;87.70;102564.63;5027689;28;20404;-83
2021/03/30 02:25:02;;;;;;;17.33;11.40;;;;;;;6.01;89.14;102569.47;5039506;28;20042;-80
2021/03/30 02:27:30;;;;;;;21.30;10.82;;;;;;;5.92;88.62;102567.31;5030845;28;20133;-82
2021/03/30 02:29:57;;;;;;;16.60;11.60;;;;;;;5.89;88.79;102557.69;5029170;28;20043;-81
2021/03/30 02:32:26;;;;;;;19.42;11.63;;;;;;;5.86;88.19;102555.22;5028275;28;20060;-83
2021/03/30 02:34:55;;;;;;;21.60;11.82;;;;;;;5.93;88.69;102564.59;5022908;28;20095;-85
2021/03/30 02:37:21;;;;;;;18.30;12.20;;;;;;;5.88;89.35;102559.50;5038658;28;20095;-83
2021/03/30 02:39:48;;;;;;;17.85;12.02;;;;;;;5.79;88.52;102562.72;5040472;28;20045;-82
2021/03/30 02:42:18;;;;;;;19.65;12.00;;;;;;;5.74;89.62;102559.44;5027610;28;20064;-82
2021/03/30 02:44:46;;;;;;;17.48;12.05;;;;;;;5.79;89.68;102557.38;5037511;28;20552;-79
2021/03/30 02:47:15;;;;;;;19.25;11.70;;;;;;;5.78;89.43;102560.13;5028325;28;20111;-84
2021/03/30 02:49:42;;;;;;;19.85;12.00;;;;;;;5.72;89.62;102564.00;5021079;28;20048;-81
2021/03/30 02:52:09;;;;;;;20.42;12.68;;;;;;;5.71;89.93;102558.78;5030047;28;20085;-79
2021/03/30 02:54:35;;;;;;;19.95;12.65;;;;;;;5.66;88.83;102575.03;5021967;28;20053;-83
2021/03/30 02:57:02;;;;;;;18.98;12.50;;;;;;;5.61;89.93;102572.63;5038852;28;20052;-80
2021/03/30 02:59:30;;;;;;;20.25;11.82;;;;;;;5.53;90.02;102577.53;5025186;28;20493;-81
2021/03/30 03:01:57;;;;;;;21.42;12.50;;;;;;;5.50;90.38;102580.38;5036633;28;20130;-79
2021/03/30 03:04:25;;;;;;;19.17;12.48;;;;;;;5.44;90.21;102586.06;5045915;28;20042;-80
2021/03/30 03:06:51;;;;;;;19.60;12.75;;;;;;;5.41;90.67;102584.44;5029143;28;20555;-81
2021/03/30 03:09:16;;;;;;;20.13;12.60;;;;;;;5.36;90.61;102585.63;5031287;28;20080;-80
2021/03/30 03:11:47;;;;;;;21.58;13.07;;;;;;;5.40;90.95;102580.03;5024829;28;20043;-82
2021/03/30 03:14:14;;;;;;;21.58;12.63;;;;;;;5.35;90.53;102581.22;5042257;28;20163;-79
2021/03/30 03:16:42;;;;;;;19.30;12.57;;;;;;;5.34;90.51;102580.38;5042094;28;20045;-80
2021/03/30 03:19:09;;;;;;;21.05;12.38;;;;;;;5.28;90.08;102574.56;5037941;28;20041;-83
2021/03/30 03:21:36;;;;;;;23.10;13.63;;;;;;;5.28;91.56;102582.53;5009810;28;20042;-81
2021/03/30 03:24:09;;;;;;;20.83;12.80;;;;;;;5.28;91.30;102579.88;5036869;28;20121;-82
2021/03/30 03:26:35;;;;;;;22.10;13.23;;;;;;;5.29;91.47;102582.44;5019273;28;20057;-83
2021/03/30 03:29:01;;;;;;;23.83;14.57;;;;;;;5.31;91.60;102585.03;5025664;28;20065;-84
2021/03/30 03:31:28;;;;;;;21.88;13.85;;;;;;;5.32;91.29;102574.31;5018897;28;20076;-83
2021/03/30 03:34:01;;;;;;;24.33;13.82;;;;;;;5.31;91.19;102582.38;5019819;28;20442;-80
2021/03/30 03:36:40;;;;;;;23.40;13.63;;;;;;;5.20;90.36;102581.16;5025899;28;20555;-77
2021/03/30 03:39:08;;;;;;;;;;;;;;;5.12;90.77;102580.75;5031556;28;20066;-81
2021/03/30 03:41:34;;;;;;;23.75;14.48;;;;;;;5.09;92.79;102593.34;5028427;28;19921;-80
2021/03/30 03:44:01;;;;;;;21.95;13.68;;;;;;;5.09;91.70;102588.91;5026824;28;20056;-79
2021/03/30 03:46:27;;;;;;;23.95;13.98;;;;;;;5.02;91.78;102590.16;5021665;28;20065;-82
2021/03/30 03:48:53;;;;;;;25.13;14.10;;;;;;;4.90;92.07;102577.53;5027129;28;20050;-82
2021/03/30 03:51:22;;;;;;;22.77;14.15;;;;;;;5.02;92.55;102582.19;5007939;28;20056;-80
2021/03/30 03:53:51;;;;;;;28.17;15.10;;;;;;;4.99;92.74;102585.00;5026921;28;20046;-82
2021/03/30 03:56:23;;;;;;;22.95;14.52;;;;;;;4.92;92.29;102578.28;5021187;28;20049;-79
2021/03/30 03:58:54;;;;;;;24.00;14.00;;;;;;;4.78;92.21;102579.06;5027116;28;20091;-84
2021/03/30 04:01:22;;;;;;;23.85;14.15;;;;;;;4.79;93.30;102578.13;5024354;28;20433;-84
2021/03/30 04:03:58;;;;;;;24.38;14.70;;;;;;;4.80;93.25;102587.81;5021486;28;20034;-78
2021/03/30 04:06:30;;;;;;;25.38;14.90;;;;;;;4.79;92.60;102579.94;5026798;28;20045;-81
2021/03/30 04:08:59;;;;;;;27.65;14.30;;;;;;;4.75;92.28;102587.22;5011125;28;20096;-80
2021/03/30 04:11:26;;;;;;;24.17;15.15;;;;;;;4.70;92.61;102582.13;5007221;28;20133;-80
2021/03/30 04:13:52;;;;;;;26.30;15.10;;;;;;;4.73;93.52;102581.97;5040212;28;20034;-83
2021/03/30 04:16:18;;;;;;;23.90;14.52;;;;;;;4.77;91.94;102581.81;5019663;28;20046;-78
2021/03/30 04:18:44;;;;;;;24.33;15.25;;;;;;;4.78;93.08;102581.72;5037084;28;20041;-85
2021/03/30 04:21:31;;;;;;;27.67;16.30;;;;;;;4.77;93.10;102584.47;5023213;28;20053;-82
2021/03/30 04:23:58;;;;;;;30.00;16.30;;;;;;;4.62;93.41;102584.34;5015731;28;20042;-79
2021/03/30 04:26:24;;;;;;;28.35;17.60;;;;;;;4.59;94.19;102587.16;5036246;28;20526;-79
2021/03/30 04:28:49;;;;;;;30.15;17.02;;;;;;;4.59;94.46;102581.84;5024805;28;20073;-80
2021/03/30 04:31:15;;;;;;;28.10;16.90;;;;;;;4.56;93.98;102587.34;5021664;28;20076;-82
2021/03/30 04:33:40;;;;;;;29.65;17.08;;;;;;;4.51;94.58;102590.22;5006079;28;20103;-83
2021/03/30 04:36:06;;;;;;;27.88;16.73;;;;;;;4.49;94.45;102594.78;5017792;28;20569;-84
2021/03/30 04:38:31;;;;;;;28.23;17.27;;;;;;;4.52;94.42;102596.44;5037618;28;20528;-84
2021/03/30 04:40:57;;;;;;;27.48;17.05;;;;;;;4.45;93.84;102595.88;5015910;28;20081;-83
2021/03/30 04:43:23;;;;;;;26.70;17.48;;;;;;;4.45;94.61;102598.53;5006054;28;20418;-81
2021/03/30 04:45:49;;;;;;;29.80;15.98;;;;;;;4.45;93.86;102601.19;5026510;28;20068;-80
2021/03/30 04:48:15;;;;;;;26.38;16.02;;;;;;;4.43;94.00;102607.50;5014331;28;20073;-84
2021/03/30 04:50:41;;;;;;;28.02;17.38;;;;;;;4.36;94.83;102614.09;5042649;28;20065;-82
2021/03/30 04:53:06;;;;;;;28.88;15.95;;;;;;;4.36;94.25;102609.66;5025266;28;20046;-81
2021/03/30 04:55:32;;;;;;;30.13;18.17;;;;;;;4.41;94.53;102618.25;5019923;28;20055;-83
2021/03/30 04:57:57;;;;;;;31.63;18.02;;;;;;;4.33;94.67;102619.59;5018271;28;20382;-83
2021/03/30 05:00:23;;;;;;;27.02;17.98;;;;;;;4.26;95.22;102619.91;5022231;28;20057;-78
2021/03/30 05:02:48;;;;;;;32.88;17.20;;;;;;;4.22;95.16;102617.47;5004037;28;20416;-82
2021/03/30 05:05:13;;;;;;;31.80;17.73;;;;;;;4.22;95.02;102620.97;5025717;28;20126;-80
2021/03/30 05:07:39;;;;;;;32.03;18.17;;;;;;;4.19;95.26;102626.44;5039838;28;20045;-80
2021/03/30 05:10:06;;;;;;;32.03;18.63;;;;;;;4.15;95.15;102632.88;5023433;28;20317;-79
2021/03/30 05:12:31;;;;;;;31.17;18.15;;;;;;;4.10;95.42;102629.59;5040496;28;20444;-80
2021/03/30 05:14:57;;;;;;;33.17;18.27;;;;;;;4.13;94.73;102632.09;5014907;28;20034;-83
2021/03/30 05:17:22;;;;;;;34.13;17.45;;;;;;;4.08;95.47;102631.44;5027685;28;20553;-82
2021/03/30 05:19:48;;;;;;;30.70;18.83;;;;;;;4.02;96.14;102645.03;5027186;28;20176;-83
2021/03/30 05:22:14;;;;;;;30.98;17.77;;;;;;;3.97;95.78;102629.34;5017056;28;20049;-84
2021/03/30 05:24:39;;;;;;;30.50;18.30;;;;;;;3.97;95.62;102632.00;5017130;28;20056;-79
2021/03/30 05:27:06;;;;;;;31.45;18.10;;;;;;;3.96;96.24;102634.72;5026891;28;20045;-81
2021/03/30 05:29:31;;;;;;;30.73;18.80;;;;;;;4.04;96.65;102637.88;5023937;28;20046;-83
2021/03/30 05:31:56;;;;;;;30.65;17.52;;;;;;;4.00;95.85;102639.81;5026963;28;20401;-82
2021/03/30 05:34:22;;;;;;;34.88;19.13;;;;;;;4.00;96.01;102641.59;5033696;28;20051;-82
2021/03/30 05:36:48;;;;;;;30.92;17.88;;;;;;;4.00;96.25;102637.16;5021136;28;20052;-82
2021/03/30 05:39:13;;;;;;;33.47;17.80;;;;;;;3.97;95.68;102641.75;5025981;28;20040;-82
2021/03/30 05:41:39;;;;;;;30.85;18.67;;;;;;;4.00;95.42;102636.28;5037927;28;20049;-81
2021/03/30 05:44:06;;;;;;;31.30;18.65;;;;;;;3.97;96.21;102645.28;5026504;28;20038;-81
2021/03/30 05:46:32;;;;;;;35.92;18.73;;;;;;;4.05;95.70;102640.44;5042937;28;20418;-82
2021/03/30 05:48:57;;;;;;;32.92;18.63;;;;;;;4.18;95.77;102645.16;5019867;28;20096;-80
2021/03/30 05:51:24;;;;;;;32.60;19.27;;;;;;;4.15;95.66;102646.16;5020817;28;20547;-78
2021/03/30 05:53:56;;;;;;;33.10;18.90;;;;;;;4.16;95.66;102650.53;5021094;28;20387;-81
2021/03/30 05:56:27;;;;;;;33.60;19.23;;;;;;;4.24;95.14;102648.34;5020864;28;20061;-82
2021/03/30 05:58:57;;;;;;;36.10;18.45;;;;;;;4.30;95.01;102649.84;5026036;28;21537;-81
2021/03/30 06:01:24;;;;;;;32.92;19.30;;;;;;;4.26;94.29;102645.63;5024697;28;20113;-80
2021/03/30 06:03:53;;;;;;;31.67;18.95;;;;;;;4.36;95.15;102649.50;5044231;28;20052;-80
2021/03/30 06:06:19;;;;;;;33.17;18.63;;;;;;;4.42;94.95;102651.84;5022980;28;20068;-79
2021/03/30 06:08:45;;;;;;;32.28;19.25;;;;;;;4.46;94.82;102655.22;5016434;28;20060;-81
2021/03/30 06:11:11;;;;;;;33.72;19.65;;;;;;;4.53;94.36;102656.63;5028635;28;20405;-81
2021/03/30 06:13:44;;;;;;;30.55;19.02;;;;;;;4.64;93.60;102659.59;5015789;28;20095;-82
2021/03/30 06:16:31;;;;;;;31.60;18.42;;;;;;;4.65;93.57;102660.44;5026922;28;20061;-81
2021/03/30 06:19:06;;;;;;;31.10;18.02;;;;;;;4.65;93.57;102666.63;5031216;28;21312;-79
2021/03/30 06:21:35;;;;;;;33.25;18.90;;;;;;;4.75;93.79;102667.00;5037385;28;20049;-80
2021/03/30 06:24:01;;;;;;;32.17;18.00;;;;;;;4.91;92.99;102672.38;5026885;28;20107;-81
2021/03/30 06:26:27;;;;;;;29.30;17.73;;;;;;;5.08;92.19;102679.44;5021691;28;20594;-83
2021/03/30 06:28:53;;;;;;;35.63;18.33;;;;;;;5.23;91.53;102672.44;5024134;28;20041;-82
2021/03/30 06:31:18;;;;;;;28.88;17.13;;;;;;;5.49;89.74;102671.84;5026527;28;20045;-78
2021/03/30 06:33:51;;;;;;;28.88;16.55;;;;;;;5.76;88.41;102676.59;5037084;28;20477;-83
2021/03/30 06:36:29;;;;;;;31.90;16.83;;;;;;;5.88;87.16;102682.06;5017957;28;20125;-81
2021/03/30 06:39:07;;;;;;;29.38;16.35;;;;;;;6.13;87.05;102679.81;5022693;28;20061;-78
2021/03/30 06:41:43;;;;;;;34.00;17.00;;;;;;;6.55;84.56;102692.44;5022515;28;20044;-81
2021/03/30 06:44:29;;;;;;;29.42;17.50;;;;;;;7.00;81.80;102693.28;5039535;28;20042;-81
2021/03/30 06:47:07;;;;;;;27.13;16.52;;;;;;;7.35;80.09;102685.72;5030266;28;20049;-82
2021/03/30 06:49:35;;;;;;;30.65;16.02;;;;;;;7.64;78.21;102683.00;5018841;28;20045;-80
2021/03/30 06:54:30;;;;;;;30.20;16.60;;;;;;;8.04;77.29;102685.75;5010987;28;20076;-82
2021/03/30 06:56:58;;;;;;;29.70;16.38;;;;;;;8.28;75.15;102689.44;5004335;28;20045;-81
2021/03/30 06:59:24;;;;;;;27.50;16.10;;;;;;;8.44;74.74;102689.31;5020421;28;20041;-83
2021/03/30 07:01:55;;;;;;;31.83;15.75;;;;;;;8.59;73.85;102693.59;5021713;28;20045;-81
2021/03/30 07:04:21;;;;;;;30.65;16.10;;;;;;;8.75;74.29;102688.06;5004364;28;20088;-82
2021/03/30 07:06:53;;;;;;;31.45;15.75;;;;;;;8.87;72.98;102686.34;5003066;28;20418;-83
2021/03/30 07:09:22;;;;;;;27.52;15.88;;;;;;;9.04;72.89;102687.84;5018237;28;20049;-83
2021/03/30 07:11:48;;;;;;;32.92;17.02;;;;;;;9.22;72.63;102686.53;5017817;28;20030;-79
2021/03/30 07:14:13;;;;;;;28.15;15.27;;;;;;;9.35;71.94;102681.19;5016184;28;20405;-79
2021/03/30 07:16:48;;;;;;;32.33;16.88;;;;;;;9.47;71.14;102690.16;5018121;28;20037;-82
2021/03/30 07:19:15;;;;;;;34.95;17.45;;;;;;;9.60;71.19;102684.75;4997879;28;20045;-81
2021/03/30 07:21:53;;;;;;;29.73;17.00;;;;;;;9.81;70.68;102682.31;5017755;28;20057;-80
2021/03/30 07:24:23;;;;;;;29.53;15.53;;;;;;;9.95;69.85;102684.81;5013852;28;20515;-81
2021/03/30 07:27:02;;;;;;;30.02;16.70;;;;;;;10.04;69.78;102686.84;5006873;28;20075;-82
2021/03/30 07:29:36;;;;;;;28.48;15.57;;;;;;;10.19;69.78;102681.31;4983970;28;20683;-79
2021/03/30 07:32:21;;;;;;;30.50;14.90;;;;;;;10.43;68.58;102683.97;5009774;28;20045;-83
2021/03/30 07:34:58;;;;;;;30.80;16.52;;;;;;;10.51;68.37;102682.41;5011793;28;20125;-78
2021/03/30 07:37:36;;;;;;;29.45;15.65;;;;;;;10.69;67.78;102684.66;5010883;28;20042;-82
2021/03/30 07:40:04;;;;;;;29.60;15.75;;;;;;;10.74;68.29;102694.06;5006582;28;20553;-82
2021/03/30 07:42:31;;;;;;;32.80;15.75;;;;;;;10.94;66.28;102687.13;5010498;28;20048;-82
2021/03/30 07:44:58;;;;;;;35.08;16.92;;;;;;;10.95;66.47;102683.47;5017408;28;20133;-82
2021/03/30 07:47:24;;;;;;;31.33;16.05;;;;;;;11.00;66.62;102694.72;5013522;28;20428;-85
2021/03/30 07:49:52;;;;;;;29.85;14.93;;;;;;;11.17;65.61;102689.84;5014022;28;20049;-85
2021/03/30 07:52:19;;;;;;;33.28;17.30;;;;;;;11.23;65.55;102686.66;5021218;28;20042;-79
2021/03/30 07:55:17;;;;;;;28.45;15.95;;;;;;;11.46;64.92;102682.13;5008878;28;20475;-86
2021/03/30 07:58:18;;;;;;;29.80;17.38;;;;;;;11.52;64.83;102687.84;4981509;28;20041;-82
2021/03/30 08:00:43;;;;;;;31.45;16.77;;;;;;;11.77;64.38;102687.66;4981740;28;20038;-80
2021/03/30 08:03:09;;;;;;;34.00;16.88;;;;;;;11.80;64.18;102690.13;5001980;28;20411;-82
2021/03/30 08:05:38;;;;;;;31.70;17.13;;;;;;;11.92;64.51;102687.31;4981027;28;20056;-81
2021/03/30 08:08:22;;;;;;;32.63;16.85;;;;;;;12.03;63.22;102683.72;4997557;28;20041;-84
2021/03/30 08:10:51;;;;;;;28.13;15.70;;;;;;;12.21;62.30;102683.19;4981427;28;20038;-81
2021/03/30 08:13:33;;;;;;;31.58;17.25;;;;;;;12.44;61.85;102681.22;5005876;28;20601;-84
2021/03/30 08:16:01;;;;;;;34.35;17.48;;;;;;;12.64;61.54;102691.16;4998147;28;20050;-86
2021/03/30 08:18:30;;;;;;;31.10;15.60;;;;;;;12.71;59.90;102688.78;4999705;28;20042;-82
2021/03/30 08:21:16;;;;;;;28.05;15.60;;;;;;;12.97;57.18;102689.22;5012839;28;20091;-80
2021/03/30 08:23:55;;;;;;;26.52;13.77;;;;;;;13.15;56.56;102690.31;5002312;28;20046;-83
2021/03/30 08:26:28;;;;;;;33.38;15.52;;;;;;;13.25;57.77;102683.13;4990566;28;20045;-81
2021/03/30 08:28:57;;;;;;;31.65;13.90;;;;;;;13.50;56.91;102683.66;5008446;28;20072;-80
2021/03/30 08:31:39;;;;;;;27.38;15.77;;;;;;;13.64;56.54;102691.38;5003505;28;20037;-81
2021/03/30 08:34:22;;;;;;;29.13;14.68;;;;;;;13.70;56.04;102676.47;4991523;28;20038;-82
2021/03/30 08:36:51;;;;;;;23.70;14.23;;;;;;;13.68;55.44;102684.69;5004050;28;20517;-81
2021/03/30 08:39:19;;;;;;;29.00;14.40;;;;;;;13.78;55.61;102684.69;5007054;28;20125;-83
2021/03/30 08:42:00;;;;;;;29.00;13.70;;;;;;;13.93;54.66;102680.63;5009463;28;21486;-82
2021/03/30 08:44:54;;;;;;;23.30;13.15;;;;;;;14.15;53.91;102686.72;4981650;28;20429;-81
2021/03/30 08:47:30;;;;;;;24.70;13.88;;;;;;;14.08;54.94;102681.03;4986298;28;20047;-81
2021/03/30 08:50:15;;;;;;;29.52;15.30;;;;;;;14.11;55.18;102691.56;4995634;28;20049;-80
2021/03/30 08:52:41;;;;;;;25.98;13.65;;;;;;;14.28;54.44;102683.75;4990188;28;20864;-83
2021/03/30 08:55:09;;;;;;;30.63;14.98;;;;;;;14.37;54.54;102691.00;5004238;28;20041;-83
2021/03/30 08:57:37;;;;;;;27.08;14.90;;;;;;;14.44;54.42;102692.13;5007048;28;20359;-81
2021/03/30 09:00:15;;;;;;;29.23;15.32;;;;;;;14.46;53.55;102684.72;5004845;28;20129;-83
2021/03/30 09:02:40;;;;;;;29.40;15.80;;;;;;;14.62;54.06;102689.59;5004063;28;20042;-82
2021/03/30 09:05:18;;;;;;;29.10;14.95;;;;;;;14.71;54.52;102688.72;5006107;28;20095;-81
2021/03/30 09:07:47;;;;;;;32.53;17.08;;;;;;;14.83;54.37;102689.38;4981887;28;20133;-83
2021/03/30 09:10:15;;;;;;;25.73;14.98;;;;;;;14.87;54.01;102685.38;5004416;28;20158;-84
2021/03/30 09:12:41;;;;;;;27.85;16.55;;;;;;;14.93;53.62;102679.38;5011445;28;20036;-84
2021/03/30 09:15:10;;;;;;;27.20;15.13;;;;;;;15.03;54.54;102684.78;4992093;28;20038;-85
2021/03/30 09:17:51;;;;;;;27.58;15.52;;;;;;;15.22;52.70;102686.53;5010989;28;20503;-79
2021/03/30 09:20:18;;;;;;;27.88;13.85;;;;;;;15.23;51.26;102694.53;4999693;28;20042;-83
2021/03/30 09:22:46;;;;;;;29.33;15.85;;;;;;;15.14;51.62;102690.00;5015571;28;20053;-79
2021/03/30 09:25:37;;;;;;;32.40;16.30;;;;;;;15.21;52.41;102690.25;4985066;28;20045;-84
2021/03/30 09:28:03;;;;;;;27.75;14.30;;;;;;;15.44;51.76;102691.56;4992391;28;20042;-81
2021/03/30 09:30:29;;;;;;;29.25;16.40;;;;;;;15.54;52.13;102686.97;5006981;28;20072;-86
2021/03/30 09:32:56;;;;;;;31.25;17.88;;;;;;;15.63;52.00;102690.63;5008516;28;20076;-80
2021/03/30 09:35:24;;;;;;;26.55;16.20;;;;;;;15.66;52.97;102686.75;5009023;28;20053;-85
2021/03/30 09:37:58;;;;;;;32.53;17.17;;;;;;;15.85;52.87;102689.34;5004797;28;20588;-79
2021/03/30 09:40:35;;;;;;;29.30;16.10;;;;;;;15.99;49.18;102686.13;5008464;28;20041;-82
2021/03/30 09:43:04;;;;;;;29.02;15.85;;;;;;;16.04;48.88;102692.94;4991515;28;20133;-83
2021/03/30 09:45:30;;;;;;;;;;;;;;;16.15;49.87;102692.72;4995055;28;20046;-81
2021/03/30 09:47:58;;;;;;;28.75;16.05;;;;;;;16.18;48.31;102684.28;4991376;28;20016;-83
2021/03/30 09:50:26;;;;;;;33.67;16.42;;;;;;;16.17;48.19;102686.16;5005634;28;20042;-83
2021/03/30 09:52:52;;;;;;;33.03;19.17;;;;;;;16.32;49.64;102689.16;4976385;28;20046;-83
2021/03/30 09:55:28;;;;;;;31.45;17.30;;;;;;;16.33;49.09;102693.53;4984666;28;20157;-84
2021/03/30 09:58:12;;;;;;;28.67;18.08;;;;;;;16.32;50.71;102697.28;5009053;28;20083;-82
2021/03/30 10:00:40;;;;;;;27.02;14.35;;;;;;;16.43;46.14;102688.91;4988809;28;20125;-81
2021/03/30 10:03:07;;;;;;;29.02;15.23;;;;;;;16.53;45.84;102691.50;5007815;28;20057;-83
2021/03/30 10:05:34;;;;;;;31.20;16.40;;;;;;;16.61;47.06;102690.72;4985950;28;20085;-81
2021/03/30 10:08:00;;;;;;;26.50;14.77;;;;;;;16.71;45.47;102691.47;5000628;28;20049;-82
2021/03/30 10:10:39;;;;;;;23.77;12.63;;;;;;;16.78;44.09;102692.59;5002168;28;20046;-83
2021/03/30 10:13:06;;;;;;;25.35;13.80;;;;;;;16.97;45.05;102690.66;5017790;28;20548;-84
2021/03/30 10:15:40;;;;;;;25.52;13.25;;;;;;;17.16;43.29;102684.16;5028175;28;20080;-85
2021/03/30 10:18:08;;;;;;;23.40;12.32;;;;;;;17.10;40.06;102689.22;5019987;28;20037;-85
2021/03/30 10:20:44;;;;;;;22.15;12.65;;;;;;;17.24;40.97;102687.75;5009952;28;20041;-84
2021/03/30 10:23:26;;;;;;;22.67;11.45;;;;;;;17.36;40.55;102686.44;5017016;28;20042;-82
2021/03/30 10:25:53;;;;;;;23.92;13.23;;;;;;;17.29;42.56;102687.25;5005549;28;20095;-84
2021/03/30 10:28:28;;;;;;;24.20;13.18;;;;;;;17.45;42.02;102687.34;5000292;28;20054;-84
2021/03/30 10:31:11;;;;;;;24.77;13.02;;;;;;;17.43;43.74;102693.94;5002103;28;20042;-84
2021/03/30 10:33:44;;;;;;;24.88;13.63;;;;;;;17.52;43.65;102680.25;5003350;28;20116;-82
2021/03/30 10:36:14;;;;;;;21.17;12.45;;;;;;;17.64;42.48;102677.25;5001785;28;20038;-81
2021/03/30 10:38:41;;;;;;;24.77;12.73;;;;;;;17.64;41.33;102678.06;5005818;28;20498;-81
2021/03/30 10:41:11;;;;;;;24.95;13.32;;;;;;;17.66;41.39;102673.31;4968199;28;20077;-83
2021/03/30 10:43:37;;;;;;;22.27;12.85;;;;;;;17.77;41.70;102661.31;5000561;28;20077;-84
2021/03/30 10:46:19;;;;;;;20.52;11.75;;;;;;;17.78;42.02;102669.31;4999953;28;20127;-81
2021/03/30 10:49:03;;;;;;;26.80;13.98;;;;;;;17.72;40.46;102666.38;5005690;28;20512;-84
2021/03/30 10:51:31;;;;;;;23.00;11.68;;;;;;;17.77;39.05;102661.31;5000496;28;20058;-84
2021/03/30 10:53:58;;;;;;;21.35;10.40;;;;;;;17.84;37.12;102646.09;4988305;28;20045;-81
2021/03/30 10:56:24;;;;;;;19.58;11.27;;;;;;;17.91;38.58;102652.53;5001527;28;20057;-83
2021/03/30 10:58:49;;;;;;;21.23;11.68;;;;;;;18.07;39.14;102650.84;5005809;28;20038;-84
2021/03/30 11:01:14;;;;;;;22.52;12.55;;;;;;;18.22;39.72;102647.28;5009340;28;20046;-84
2021/03/30 11:03:40;;;;;;;22.08;13.48;;;;;;;18.30;43.56;102651.00;5005295;28;20038;-82
2021/03/30 11:06:05;;;;;;;24.17;12.65;;;;;;;18.42;39.22;102645.06;5005388;28;20501;-83
2021/03/30 11:08:31;;;;;;;21.42;11.98;;;;;;;18.39;37.63;102644.59;5001762;28;20045;-84
2021/03/30 11:10:56;;;;;;;23.45;12.93;;;;;;;18.31;40.60;102644.59;4973365;28;20060;-82
2021/03/30 11:13:22;;;;;;;22.70;11.95;;;;;;;18.41;36.25;102642.53;5007504;28;20128;-84
2021/03/30 11:15:50;;;;;;;20.73;11.38;;;;;;;18.52;39.82;102639.44;5006202;28;20038;-81
2021/03/30 11:18:15;;;;;;;23.17;13.40;;;;;;;18.52;40.69;102642.16;4991540;28;20398;-83
2021/03/30 11:20:40;;;;;;;24.08;13.70;;;;;;;18.78;40.69;102632.97;5015523;28;20038;-84
2021/03/30 11:23:06;;;;;;;26.05;13.38;;;;;;;18.81;39.20;102627.19;4995282;28;20068;-82
2021/03/30 11:25:32;;;;;;;27.00;13.80;;;;;;;18.80;38.72;102626.34;4997117;28;20038;-84
2021/03/30 11:28:03;;;;;;;24.60;13.23;;;;;;;18.88;39.47;102628.19;4996093;28;20164;-80
2021/03/30 11:31:05;;;;;;;21.00;12.15;;;;;;;18.93;39.25;102623.94;5017009;28;20527;-83
2021/03/30 11:33:29;;;;;;;22.52;12.18;;;;;;;19.02;37.39;102619.31;4983832;28;20039;-84